Terminal Aerodrome Forecast
Issued by NWS

Home | Current Version | Previous Version | Text Only | Print | Product List | Glossary On
Versions: 1 2 3 4 5 6 7 8 9 10 11 12 13 14 15 16 17 18 19 20 21 22 23 24 25 26 27 28 29 30 31 32 33 34 35 36 37 38 39 40 41 42
000
FTUS43 KDMX 222335
TAFMCW
TAF
KMCW 222335Z 2300/2324 05004KT P6SM SKC
     FM230600 VRB03KT 3SM BR FEW010
      TEMPO 2310/2313 1/2SM FG BKN008
     FM231300 09007KT 5SM BR FEW009
     FM231500 10009KT P6SM SCT020
     FM231800 13012G20KT P6SM BKN150=

USA.gov is the U.S. government's official web portal to all federal, state and local government web resources and services.